Time;durP1;ratioP1;P1;durP2;ratioP2;P2;SDS_P1;SDS_P2;PMS_P1;PMS_P2;Temp;Humidity;BMP_temperature;BMP_pressure;BME280_temperature;BME280_humidity;BME280_pressure;Samples;Min_cycle;Max_cycle;Signal;HPM_P1;HPM_P2
2022/07/05 00:00:51;;;;;;;5.32;4.43;;;12.40;99.90;;;;;;5017611;28;20103;-91
2022/07/05 00:03:17;;;;;;;5.72;4.75;;;12.40;99.90;;;;;;4969451;28;20077;-91
2022/07/05 00:05:47;;;;;;;5.70;4.82;;;12.30;99.90;;;;;;5035911;28;20088;-91
2022/07/05 00:08:13;;;;;;;7.97;6.35;;;12.30;99.90;;;;;;4971783;28;20038;-91
2022/07/05 00:10:40;;;;;;;7.75;5.38;;;12.30;99.90;;;;;;4984284;28;20488;-91
2022/07/05 00:13:07;;;;;;;7.55;5.55;;;12.20;99.90;;;;;;4967084;28;20125;-91
2022/07/05 00:15:34;;;;;;;6.90;6.20;;;12.30;99.90;;;;;;5000758;28;20458;-91
2022/07/05 00:18:14;;;;;;;6.13;5.20;;;12.20;99.90;;;;;;4984971;28;20100;-91
2022/07/05 00:20:48;;;;;;;7.15;5.90;;;12.30;99.90;;;;;;5001233;28;20049;-91
2022/07/05 00:23:33;;;;;;;6.80;6.20;;;12.20;99.90;;;;;;5018257;28;20099;-91
2022/07/05 00:26:34;;;;;;;7.00;5.90;;;12.20;99.90;;;;;;4968443;28;20050;-91
2022/07/05 00:29:07;;;;;;;6.40;5.57;;;12.20;99.90;;;;;;4986124;28;20041;-91
2022/07/05 00:31:33;;;;;;;6.35;5.75;;;12.20;99.90;;;;;;4957551;28;20115;-91
2022/07/05 00:33:59;;;;;;;6.30;5.70;;;12.10;99.90;;;;;;4986438;28;20057;-91
2022/07/05 00:36:26;;;;;;;6.68;5.38;;;12.10;99.90;;;;;;4987869;28;20548;-92
2022/07/05 00:38:53;;;;;;;6.15;4.70;;;12.00;99.90;;;;;;4969088;28;20046;-91
2022/07/05 00:41:19;;;;;;;6.18;4.90;;;12.00;99.90;;;;;;5008887;28;20044;-92
2022/07/05 00:43:57;;;;;;;7.75;5.68;;;12.00;99.90;;;;;;4991272;28;20681;-92
2022/07/05 00:46:31;;;;;;;6.20;5.13;;;11.90;99.90;;;;;;5007255;28;20080;-92
2022/07/05 00:48:59;;;;;;;7.55;5.18;;;11.90;99.90;;;;;;4973897;28;20049;-92
2022/07/05 00:51:34;;;;;;;6.07;4.70;;;11.80;99.90;;;;;;4995266;28;20056;-93
2022/07/05 00:54:00;;;;;;;6.65;4.72;;;11.70;99.90;;;;;;5021960;28;20042;-91
2022/07/05 00:56:30;;;;;;;5.47;4.45;;;11.70;99.90;;;;;;4988743;28;20682;-89
2022/07/05 00:58:57;;;;;;;6.05;5.30;;;11.60;99.90;;;;;;4988985;28;20085;-92
2022/07/05 01:01:26;;;;;;;5.65;5.03;;;11.70;99.90;;;;;;4976711;28;20523;-91
2022/07/05 01:03:53;;;;;;;5.63;4.65;;;11.70;99.90;;;;;;5005873;28;20501;-91
2022/07/05 01:06:22;;;;;;;6.15;5.32;;;11.70;99.90;;;;;;5004151;28;20092;-91
2022/07/05 01:08:49;;;;;;;6.60;5.18;;;11.60;99.90;;;;;;4973690;28;20049;-91
2022/07/05 01:11:22;;;;;;;6.05;5.55;;;11.60;99.90;;;;;;4973981;28;20046;-91
2022/07/05 01:14:01;;;;;;;6.07;5.47;;;11.60;99.90;;;;;;4988903;28;20054;-90
2022/07/05 01:16:33;;;;;;;6.93;6.22;;;11.60;99.90;;;;;;5002709;28;20551;-91
2022/07/05 01:18:59;;;;;;;6.63;5.85;;;11.60;99.90;;;;;;5006735;28;20045;-91
2022/07/05 01:21:28;;;;;;;7.85;7.07;;;11.60;99.90;;;;;;5019953;28;20037;-91
2022/07/05 01:23:57;;;;;;;7.50;6.75;;;11.60;99.90;;;;;;4983735;28;20516;-92
2022/07/05 01:26:32;;;;;;;7.32;6.47;;;11.70;99.90;;;;;;5020825;28;20046;-91
2022/07/05 01:28:59;;;;;;;8.77;6.63;;;11.70;99.90;;;;;;5009118;28;20481;-92
2022/07/05 01:31:25;;;;;;;6.32;5.72;;;11.70;99.90;;;;;;4973371;28;20409;-92
2022/07/05 01:33:57;;;;;;;7.50;6.75;;;11.70;99.90;;;;;;4975044;28;20189;-92
2022/07/05 01:36:24;;;;;;;8.43;6.90;;;11.70;99.90;;;;;;4989284;28;20108;-92
2022/07/05 01:38:50;;;;;;;9.55;6.22;;;11.70;99.90;;;;;;4982614;28;20084;-91
2022/07/05 01:41:17;;;;;;;6.88;6.18;;;11.60;99.90;;;;;;5035992;28;20042;-91
2022/07/05 01:43:52;;;;;;;8.27;5.90;;;11.60;99.90;;;;;;5004206;28;20137;-91
2022/07/05 01:46:22;;;;;;;7.10;5.10;;;11.50;99.90;;;;;;4995980;28;20492;-87
2022/07/05 01:48:53;;;;;;;7.20;6.00;;;11.50;99.90;;;;;;5021788;28;20038;-92
2022/07/05 01:51:26;;;;;;;7.28;6.20;;;11.50;99.90;;;;;;4996152;28;20168;-91
2022/07/05 01:53:53;;;;;;;6.90;6.20;;;11.50;99.90;;;;;;5009499;28;20069;-91
2022/07/05 01:56:19;;;;;;;7.45;6.13;;;11.40;99.90;;;;;;5009241;28;20025;-91
2022/07/05 01:58:51;;;;;;;5.90;4.53;;;11.40;99.90;;;;;;4994842;28;20030;-91
2022/07/05 02:01:35;;;;;;;7.15;4.82;;;11.40;99.90;;;;;;5020696;28;20042;-92
2022/07/05 02:04:02;;;;;;;7.22;4.32;;;11.30;99.90;;;;;;5052462;28;20366;-92
2022/07/05 02:06:29;;;;;;;6.18;5.22;;;11.20;99.90;;;;;;4998082;28;20038;-91
2022/07/05 02:08:56;;;;;;;6.85;4.95;;;11.20;99.90;;;;;;4993466;28;20042;-92
2022/07/05 02:11:22;;;;;;;6.82;5.80;;;11.20;99.90;;;;;;4989880;28;20077;-92
2022/07/05 02:13:49;;;;;;;6.32;5.70;;;11.20;99.90;;;;;;4956793;28;20527;-91
2022/07/05 02:16:15;;;;;;;7.18;6.13;;;11.20;99.90;;;;;;4995213;28;20046;-91
2022/07/05 02:18:41;;;;;;;5.80;5.07;;;11.20;99.90;;;;;;4967460;28;20060;-91
2022/07/05 02:21:08;;;;;;;8.63;6.80;;;11.20;99.90;;;;;;4988916;28;20054;-91
2022/07/05 02:23:34;;;;;;;7.75;6.65;;;11.30;99.90;;;;;;4987023;28;20046;-92
2022/07/05 02:26:03;;;;;;;9.43;7.63;;;11.30;99.90;;;;;;4978627;28;20288;-92
2022/07/05 02:28:30;;;;;;;11.90;8.13;;;11.30;99.90;;;;;;4986733;28;20074;-92
2022/07/05 02:30:57;;;;;;;9.93;8.15;;;11.30;99.90;;;;;;5003157;28;20041;-92
2022/07/05 02:33:24;;;;;;;9.13;7.38;;;11.20;99.90;;;;;;4974431;28;20046;-92
2022/07/05 02:35:51;;;;;;;10.73;7.38;;;11.20;99.90;;;;;;4970556;28;20560;-91
2022/07/05 02:38:17;;;;;;;7.13;6.20;;;11.10;99.90;;;;;;4985129;28;20041;-92
2022/07/05 02:40:45;;;;;;;9.02;5.15;;;11.20;99.90;;;;;;5003027;28;20571;-92
2022/07/05 02:43:15;;;;;;;6.78;6.13;;;11.10;99.90;;;;;;5001875;28;20041;-92
2022/07/05 02:45:42;;;;;;;7.47;6.25;;;11.10;99.90;;;;;;4971326;28;20576;-92
2022/07/05 02:48:14;;;;;;;6.30;5.70;;;11.10;99.90;;;;;;4987451;28;20483;-91
2022/07/05 02:50:47;;;;;;;5.40;4.35;;;11.00;99.90;;;;;;4991037;28;20052;-91
2022/07/05 02:53:17;;;;;;;5.45;4.95;;;11.00;99.90;;;;;;5021918;28;20053;-92
2022/07/05 02:55:49;;;;;;;5.90;4.68;;;11.00;99.90;;;;;;4954198;28;20093;-91
2022/07/05 02:58:28;;;;;;;7.13;4.75;;;10.90;99.90;;;;;;4986596;28;20041;-92
2022/07/05 03:00:55;;;;;;;5.05;4.40;;;10.90;99.90;;;;;;4970886;28;20162;-92
2022/07/05 03:03:30;;;;;;;6.53;5.85;;;10.90;99.90;;;;;;4986786;28;20368;-91
2022/07/05 03:06:03;;;;;;;7.82;7.07;;;10.90;99.90;;;;;;4986014;28;20056;-92
2022/07/05 03:08:31;;;;;;;8.43;7.50;;;10.90;99.90;;;;;;4987237;28;20045;-92
2022/07/05 03:11:00;;;;;;;8.80;7.25;;;10.90;99.90;;;;;;5005465;28;20493;-93
2022/07/05 03:13:26;;;;;;;8.05;7.15;;;10.90;99.90;;;;;;4985489;28;20486;-93
2022/07/05 03:15:53;;;;;;;8.60;7.47;;;10.90;99.90;;;;;;5010002;28;20049;-92
2022/07/05 03:18:22;;;;;;;7.93;7.13;;;10.90;99.90;;;;;;4971464;28;20048;-92
2022/07/05 03:20:49;;;;;;;8.65;7.30;;;10.90;99.90;;;;;;5011908;28;20053;-93
2022/07/05 03:23:16;;;;;;;8.15;7.35;;;11.00;99.90;;;;;;4987001;28;20046;-92
2022/07/05 03:25:49;;;;;;;9.88;8.13;;;10.90;99.90;;;;;;4990303;28;20050;-92
2022/07/05 03:28:16;;;;;;;9.30;8.30;;;11.00;99.90;;;;;;4989268;28;20353;-93
2022/07/05 03:30:44;;;;;;;10.35;8.90;;;11.00;99.90;;;;;;4984338;28;20057;-91
2022/07/05 03:33:10;;;;;;;11.07;9.93;;;11.00;99.90;;;;;;5032009;28;20416;-92
2022/07/05 03:35:41;;;;;;;10.73;9.63;;;11.10;99.90;;;;;;4984790;28;20041;-92
2022/07/05 03:38:07;;;;;;;11.13;10.05;;;11.10;99.90;;;;;;4985309;28;20129;-91
2022/07/05 03:40:33;;;;;;;10.73;9.73;;;11.10;99.90;;;;;;4970864;28;20199;-92
2022/07/05 03:43:00;;;;;;;11.35;10.20;;;11.10;99.90;;;;;;4970089;28;20084;-92
2022/07/05 03:45:31;;;;;;;10.65;9.65;;;11.00;99.90;;;;;;4984819;28;20131;-93
2022/07/05 03:47:59;;;;;;;11.27;10.18;;;11.00;99.90;;;;;;4986923;28;20050;-93
2022/07/05 03:50:26;;;;;;;11.80;10.60;;;11.00;99.90;;;;;;4984346;28;20449;-92
2022/07/05 03:52:53;;;;;;;11.48;10.15;;;11.00;99.90;;;;;;4986200;28;20046;-93
2022/07/05 03:55:22;;;;;;;10.75;9.60;;;11.00;99.90;;;;;;4958660;28;20501;-92
2022/07/05 03:57:49;;;;;;;11.98;10.68;;;11.10;99.90;;;;;;5003429;28;20052;-92
2022/07/05 04:00:20;;;;;;;12.63;11.32;;;11.20;99.90;;;;;;4951739;28;20060;-91
2022/07/05 04:02:54;;;;;;;13.65;11.40;;;11.20;99.90;;;;;;4984637;28;20056;-91
2022/07/05 04:05:22;;;;;;;13.10;11.80;;;11.20;99.90;;;;;;4951572;28;20486;-92
2022/07/05 04:07:49;;;;;;;12.95;11.65;;;11.30;99.90;;;;;;4964850;28;20049;-91
2022/07/05 04:10:16;;;;;;;12.43;11.23;;;11.30;99.90;;;;;;4967111;28;20046;-92
2022/07/05 04:12:45;;;;;;;12.68;11.02;;;11.30;99.90;;;;;;4960866;28;20045;-92
2022/07/05 04:15:12;;;;;;;13.90;12.10;;;11.50;99.90;;;;;;4957307;28;20140;-92
2022/07/05 04:17:53;;;;;;;13.80;11.75;;;11.40;99.90;;;;;;4964251;28;20045;-92
2022/07/05 04:20:22;;;;;;;12.48;11.30;;;11.50;99.90;;;;;;4969301;28;20057;-92
2022/07/05 04:22:49;;;;;;;11.75;10.55;;;11.50;99.90;;;;;;4993111;28;20170;-92
2022/07/05 04:25:17;;;;;;;14.23;11.32;;;11.40;99.90;;;;;;5004486;28;20077;-92
2022/07/05 04:27:47;;;;;;;11.20;10.10;;;11.50;99.90;;;;;;5002582;28;20045;-93
2022/07/05 04:30:15;;;;;;;11.85;10.65;;;11.60;99.90;;;;;;5023960;28;20046;-92
2022/07/05 04:32:42;;;;;;;14.57;10.95;;;11.60;99.90;;;;;;5005012;28;20057;-93
2022/07/05 04:35:10;;;;;;;14.48;12.77;;;11.70;99.90;;;;;;4989233;28;20060;-93
2022/07/05 04:37:40;;;;;;;13.45;11.88;;;11.70;99.90;;;;;;4975093;28;20049;-93
2022/07/05 04:40:09;;;;;;;14.25;12.75;;;11.80;99.90;;;;;;4969237;28;20581;-91
2022/07/05 04:42:36;;;;;;;13.30;12.00;;;11.90;99.90;;;;;;5003854;28;20048;-94
2022/07/05 04:45:04;;;;;;;13.38;11.98;;;12.10;99.90;;;;;;5020836;28;20379;-93
2022/07/05 04:47:30;;;;;;;15.23;13.63;;;12.10;99.90;;;;;;5005069;28;20861;-93
2022/07/05 04:49:58;;;;;;;12.82;11.63;;;12.20;99.90;;;;;;5004306;28;20056;-93
2022/07/05 04:52:26;;;;;;;14.43;12.75;;;12.40;99.90;;;;;;4990781;28;20081;-92
2022/07/05 04:54:52;;;;;;;14.30;12.95;;;12.50;99.90;;;;;;4957358;28;20476;-93
2022/07/05 04:57:19;;;;;;;14.43;12.27;;;12.50;99.90;;;;;;4975476;28;20140;-94
2022/07/05 04:59:46;;;;;;;15.90;14.25;;;12.70;99.90;;;;;;4991313;28;20042;-93
2022/07/05 05:02:12;;;;;;;15.90;14.30;;;12.80;99.90;;;;;;4977612;28;20045;-92
2022/07/05 05:04:38;;;;;;;15.00;13.45;;;12.80;99.90;;;;;;5004593;28;20064;-93
2022/07/05 05:07:04;;;;;;;16.02;14.63;;;13.00;99.90;;;;;;4970867;28;20048;-92
2022/07/05 05:09:30;;;;;;;15.75;14.25;;;13.10;99.90;;;;;;5009626;28;20045;-93
2022/07/05 05:11:57;;;;;;;15.65;14.02;;;13.30;99.90;;;;;;4992416;28;20041;-93
2022/07/05 05:14:24;;;;;;;14.02;12.68;;;13.70;99.90;;;;;;4972826;28;20073;-93
2022/07/05 05:16:50;;;;;;;12.07;10.90;;;14.10;99.90;;;;;;4937650;28;20096;-93
2022/07/05 05:19:16;;;;;;;12.70;11.18;;;14.60;99.90;;;;;;4988824;28;20038;-93
2022/07/05 05:21:42;;;;;;;11.98;10.30;;;14.90;99.90;;;;;;4970208;28;20045;-94
2022/07/05 05:24:09;;;;;;;12.30;9.52;;;15.30;99.90;;;;;;4986871;28;20064;-84
2022/07/05 05:26:36;;;;;;;11.73;9.30;;;15.40;99.90;;;;;;5001355;28;20559;-83
2022/07/05 05:29:02;;;;;;;11.65;8.73;;;15.70;99.90;;;;;;4966392;28;20049;-83
2022/07/05 05:31:28;;;;;;;9.98;8.68;;;15.90;99.90;;;;;;5003701;28;20096;-83
2022/07/05 05:33:54;;;;;;;10.20;8.40;;;16.00;99.90;;;;;;4985440;28;20046;-83
2022/07/05 05:36:20;;;;;;;9.93;8.63;;;16.20;99.90;;;;;;5004811;28;20054;-84
2022/07/05 05:38:47;;;;;;;9.00;8.20;;;16.30;99.90;;;;;;4969561;28;20049;-84
2022/07/05 05:41:14;;;;;;;10.00;7.55;;;16.60;99.90;;;;;;4973809;28;20501;-84
2022/07/05 05:43:40;;;;;;;9.32;7.25;;;16.80;99.90;;;;;;4949113;28;20464;-85
2022/07/05 05:46:06;;;;;;;8.23;7.32;;;16.90;99.90;;;;;;4999409;28;20073;-84
2022/07/05 05:48:32;;;;;;;7.20;6.50;;;17.20;99.90;;;;;;4998404;28;20242;-83
2022/07/05 05:51:00;;;;;;;9.13;7.07;;;17.40;99.90;;;;;;4985426;28;20113;-84
2022/07/05 05:53:27;;;;;;;9.63;7.35;;;17.40;99.90;;;;;;4963945;28;20052;-84
2022/07/05 05:55:53;;;;;;;8.82;6.05;;;17.70;99.90;;;;;;5004675;28;20300;-84
2022/07/05 05:58:20;;;;;;;7.82;5.65;;;17.90;99.90;;;;;;4972355;28;20041;-83
2022/07/05 06:00:52;;;;;;;8.32;5.22;;;18.00;99.90;;;;;;4983530;28;20042;-84
2022/07/05 06:03:23;;;;;;;6.88;4.75;;;18.20;99.90;;;;;;5000982;28;20061;-84
2022/07/05 06:05:49;;;;;;;8.05;4.45;;;18.30;99.90;;;;;;4952095;28;20053;-84
2022/07/05 06:08:16;;;;;;;5.30;4.30;;;18.50;99.90;;;;;;4991882;28;20163;-83
2022/07/05 06:10:43;;;;;;;7.75;4.35;;;18.60;99.90;;;;;;4989861;28;20235;-82
2022/07/05 06:13:11;;;;;;;9.30;4.90;;;18.80;99.90;;;;;;5017553;28;20132;-83
2022/07/05 06:15:39;;;;;;;7.78;4.68;;;18.80;99.90;;;;;;5014969;28;20073;-83
2022/07/05 06:18:07;;;;;;;7.22;4.40;;;19.00;99.90;;;;;;4999520;28;20464;-83
2022/07/05 06:20:35;;;;;;;12.27;5.10;;;19.30;99.90;;;;;;5034606;28;20528;-83
2022/07/05 06:23:03;;;;;;;5.82;3.28;;;19.00;99.90;;;;;;5004267;28;20081;-82
2022/07/05 06:25:30;;;;;;;3.70;2.67;;;18.70;99.90;;;;;;5000663;28;20188;-82
2022/07/05 06:28:08;;;;;;;4.80;2.75;;;18.50;99.90;;;;;;5017263;28;20390;-82
2022/07/05 06:30:36;;;;;;;4.60;2.80;;;18.70;99.90;;;;;;4987634;28;20538;-82
2022/07/05 06:33:03;;;;;;;4.85;2.80;;;18.80;99.90;;;;;;5010996;28;20095;-83
2022/07/05 06:35:31;;;;;;;5.22;2.33;;;19.00;99.90;;;;;;5014003;28;20050;-82
2022/07/05 06:38:00;;;;;;;4.07;2.30;;;19.10;99.90;;;;;;4991886;28;20050;-83
2022/07/05 06:40:29;;;;;;;5.07;1.90;;;19.20;99.90;;;;;;4995818;28;20104;-82
2022/07/05 06:42:59;;;;;;;5.20;2.28;;;19.20;99.90;;;;;;4989856;28;20248;-82
2022/07/05 06:45:32;;;;;;;5.78;1.77;;;19.30;99.90;;;;;;5015984;28;20116;-82
2022/07/05 06:48:07;;;;;;;4.05;1.65;;;19.30;99.90;;;;;;4985720;28;20042;-82
2022/07/05 06:50:35;;;;;;;3.47;1.73;;;19.30;99.90;;;;;;5004288;28;20046;-82
2022/07/05 06:53:02;;;;;;;5.82;1.58;;;19.60;99.90;;;;;;4984448;28;20045;-84
2022/07/05 06:55:29;;;;;;;6.10;1.92;;;19.50;99.90;;;;;;4982594;28;20568;-83
2022/07/05 06:58:00;;;;;;;4.70;1.50;;;19.70;99.90;;;;;;4978907;28;20052;-83
2022/07/05 07:00:27;;;;;;;4.03;1.55;;;20.00;99.90;;;;;;4996407;28;20123;-83
2022/07/05 07:02:53;;;;;;;4.63;1.40;;;20.00;99.90;;;;;;4981346;28;20053;-82
2022/07/05 07:05:22;;;;;;;4.85;2.20;;;20.40;99.90;;;;;;4985017;28;20041;-82
2022/07/05 07:10:34;;;;;;;4.90;1.55;;;20.60;99.90;;;;;;4976894;28;20209;-83
2022/07/05 07:13:01;;;;;;;2.28;1.33;;;20.20;99.90;;;;;;5000056;28;20266;-82
2022/07/05 07:15:29;;;;;;;5.50;2.47;;;20.20;99.90;;;;;;4980902;28;20152;-82
2022/07/05 07:17:56;;;;;;;6.18;3.38;;;20.10;99.90;;;;;;5015607;28;20360;-83
2022/07/05 07:20:22;;;;;;;4.25;1.40;;;20.10;99.90;;;;;;4966321;28;20030;-82
2022/07/05 07:22:48;;;;;;;6.97;3.35;;;20.20;99.90;;;;;;5018123;28;20050;-82
2022/07/05 07:25:15;;;;;;;3.03;1.75;;;20.20;99.90;;;;;;4984668;28;20052;-81
2022/07/05 07:27:46;;;;;;;5.97;1.90;;;20.30;99.90;;;;;;5003528;28;20045;-81
2022/07/05 07:30:13;;;;;;;6.38;1.60;;;20.20;99.90;;;;;;5017889;28;20619;-82
2022/07/05 07:32:39;;;;;;;4.00;1.30;;;20.20;99.90;;;;;;4959912;28;20398;-82
2022/07/05 07:35:07;;;;;;;4.93;1.58;;;20.30;99.90;;;;;;4971179;28;20392;-82
2022/07/05 07:37:34;;;;;;;6.95;1.65;;;20.70;99.90;;;;;;4984705;28;20069;-82
2022/07/05 07:40:03;;;;;;;3.38;1.48;;;21.00;99.90;;;;;;4966365;28;20056;-82
2022/07/05 07:42:29;;;;;;;2.88;1.40;;;21.40;99.90;;;;;;5015368;28;20076;-82
2022/07/05 07:44:55;;;;;;;5.05;1.30;;;21.50;99.90;;;;;;4977422;28;20049;-82
2022/07/05 07:47:22;;;;;;;3.67;1.20;;;21.70;99.90;;;;;;4999541;28;20116;-82
2022/07/05 07:49:48;;;;;;;2.97;0.80;;;21.30;99.90;;;;;;5020256;28;20049;-82
2022/07/05 07:52:15;;;;;;;5.60;1.40;;;21.50;99.90;;;;;;4969783;28;20045;-81
2022/07/05 07:54:41;;;;;;;4.88;1.30;;;21.40;99.90;;;;;;5002724;28;20120;-81
2022/07/05 07:57:10;;;;;;;3.13;0.85;;;21.20;99.90;;;;;;5002479;28;20669;-83
2022/07/05 07:59:36;;;;;;;2.28;0.80;;;21.00;99.90;;;;;;5029812;28;20136;-82
2022/07/05 08:02:03;;;;;;;3.67;1.58;;;21.00;99.90;;;;;;4982244;28;20330;-82
2022/07/05 08:04:29;;;;;;;1.75;0.80;;;21.30;99.90;;;;;;4984033;28;20398;-81
2022/07/05 08:06:55;;;;;;;2.67;1.35;;;21.70;99.90;;;;;;4968919;28;20133;-82
2022/07/05 08:09:21;;;;;;;4.35;1.00;;;21.60;99.90;;;;;;5015602;28;20340;-82
2022/07/05 08:11:47;;;;;;;4.40;1.27;;;21.90;99.90;;;;;;5007706;28;20072;-82
2022/07/05 08:14:15;;;;;;;4.05;0.93;;;21.80;99.90;;;;;;4965803;28;20054;-82
2022/07/05 08:16:42;;;;;;;2.80;1.02;;;21.60;99.90;;;;;;5011775;28;20051;-82
2022/07/05 08:21:54;;;;;;;4.38;0.98;;;21.00;99.90;;;;;;4995417;28;20046;-82
2022/07/05 08:24:21;;;;;;;5.70;0.98;;;20.70;99.90;;;;;;4964247;28;20072;-82
2022/07/05 08:26:47;;;;;;;4.40;1.38;;;20.30;99.90;;;;;;4981980;28;20436;-82
2022/07/05 08:29:16;;;;;;;2.75;1.10;;;20.10;99.90;;;;;;5016464;28;20525;-81
2022/07/05 08:31:49;;;;;;;3.47;1.00;;;20.10;99.90;;;;;;4983174;28;20049;-82
2022/07/05 08:34:17;;;;;;;4.38;1.00;;;20.60;99.90;;;;;;4983334;28;20301;-82
2022/07/05 08:36:44;;;;;;;3.38;1.00;;;20.50;99.90;;;;;;4998321;28;20077;-82
2022/07/05 08:39:11;;;;;;;4.57;1.30;;;20.40;99.90;;;;;;4985119;28;20394;-82
2022/07/05 08:41:40;;;;;;;4.38;1.00;;;20.20;99.90;;;;;;4986330;28;20054;-82
2022/07/05 08:44:07;;;;;;;4.20;0.90;;;20.10;99.90;;;;;;4982974;28;20080;-82
2022/07/05 08:46:37;;;;;;;5.40;1.10;;;20.20;99.90;;;;;;5006229;28;20058;-82
2022/07/05 08:49:04;;;;;;;4.90;0.82;;;20.10;99.90;;;;;;5030323;28;20808;-82
2022/07/05 08:51:34;;;;;;;5.25;1.02;;;20.20;99.90;;;;;;5016448;28;20497;-81
2022/07/05 08:54:01;;;;;;;2.97;1.17;;;20.60;99.90;;;;;;5015566;28;20046;-81
2022/07/05 08:56:27;;;;;;;3.75;0.95;;;20.30;99.90;;;;;;5014574;28;20045;-81
2022/07/05 08:58:54;;;;;;;3.30;0.73;;;20.80;99.90;;;;;;5013138;28;20739;-81
2022/07/05 09:01:21;;;;;;;3.30;1.00;;;21.40;99.90;;;;;;5019418;28;20042;-82
2022/07/05 09:03:50;;;;;;;4.65;1.40;;;21.50;99.90;;;;;;5018034;28;20045;-82
2022/07/05 09:06:19;;;;;;;2.53;0.70;;;21.10;99.90;;;;;;4986445;28;20053;-82
2022/07/05 09:08:47;;;;;;;4.50;0.93;;;20.90;99.90;;;;;;5021882;28;20052;-83
2022/07/05 09:11:15;;;;;;;3.35;1.65;;;20.70;99.90;;;;;;5003635;28;20060;-82
2022/07/05 09:13:47;;;;;;;3.42;0.90;;;20.50;99.90;;;;;;5019890;28;20065;-82
2022/07/05 09:16:14;;;;;;;4.97;1.10;;;20.80;99.90;;;;;;5017261;28;20038;-82
2022/07/05 09:18:56;;;;;;;7.85;5.28;;;21.20;99.90;;;;;;4987908;28;20045;-83
2022/07/05 09:21:24;;;;;;;14.20;12.70;;;21.50;99.90;;;;;;5002102;28;20517;-82
2022/07/05 09:24:03;;;;;;;25.88;23.17;;;21.50;99.90;;;;;;4971867;28;20042;-82
2022/07/05 09:26:36;;;;;;;4.85;1.95;;;21.40;99.90;;;;;;4986393;28;20049;-81
2022/07/05 09:29:14;;;;;;;18.20;15.98;;;21.10;99.90;;;;;;5011348;28;20046;-81
2022/07/05 09:31:42;;;;;;;10.45;6.32;;;21.20;99.90;;;;;;5037344;28;20108;-81
2022/07/05 09:34:14;;;;;;;9.70;6.72;;;21.90;99.90;;;;;;5003853;28;20149;-81
2022/07/05 09:36:57;;;;;;;6.65;4.75;;;22.20;99.90;;;;;;4986070;28;20081;-81
2022/07/05 09:39:30;;;;;;;4.38;1.30;;;22.50;99.90;;;;;;5038025;28;20076;-81
2022/07/05 09:42:25;;;;;;;6.35;1.20;;;22.30;99.90;;;;;;5042524;28;20049;-80
2022/07/05 09:44:58;;;;;;;3.08;1.10;;;22.20;99.90;;;;;;5019540;28;20042;-82
2022/07/05 09:47:27;;;;;;;4.03;1.20;;;22.10;98.20;;;;;;4981782;28;20107;-82
2022/07/05 09:49:56;;;;;;;4.25;2.00;;;21.70;99.90;;;;;;4969418;28;20597;-81
2022/07/05 09:52:55;;;;;;;3.80;1.05;;;21.50;99.90;;;;;;5019988;28;20132;-82
2022/07/05 09:55:21;;;;;;;36.92;31.80;;;21.10;99.90;;;;;;5009967;28;20045;-81
2022/07/05 09:57:48;;;;;;;9.05;5.22;;;20.90;99.90;;;;;;4972744;28;20057;-82
2022/07/05 10:00:20;;;;;;;3.95;0.90;;;20.80;99.90;;;;;;4969931;28;20468;-82
2022/07/05 10:02:48;;;;;;;6.25;1.58;;;20.80;99.90;;;;;;4986583;28;20361;-82
2022/07/05 10:05:24;;;;;;;5.05;1.27;;;20.70;99.90;;;;;;5000108;28;20500;-81
2022/07/05 10:07:52;;;;;;;5.45;0.93;;;20.50;99.90;;;;;;5004624;28;20488;-82
2022/07/05 10:10:24;;;;;;;4.47;1.05;;;20.40;99.90;;;;;;4994793;28;20124;-83
2022/07/05 10:12:52;;;;;;;5.18;2.72;;;20.50;99.90;;;;;;4985740;28;20500;-82
2022/07/05 10:15:25;;;;;;;5.60;1.42;;;20.60;99.90;;;;;;5031642;28;20065;-83
2022/07/05 10:18:01;;;;;;;3.33;0.85;;;21.20;99.90;;;;;;5011936;28;20367;-83
2022/07/05 10:20:40;;;;;;;3.42;1.00;;;21.20;99.90;;;;;;5021909;28;20045;-82
2022/07/05 10:23:12;;;;;;;3.20;0.80;;;21.10;99.90;;;;;;4979525;28;20042;-83
2022/07/05 10:25:42;;;;;;;4.15;1.00;;;21.10;99.90;;;;;;5000974;28;20515;-82
2022/07/05 10:28:10;;;;;;;4.55;0.90;;;21.00;99.90;;;;;;5008307;28;20075;-82
2022/07/05 10:30:40;;;;;;;2.28;0.90;;;20.90;99.90;;;;;;4984714;28;20324;-82
2022/07/05 10:33:07;;;;;;;3.35;0.80;;;20.80;99.90;;;;;;5022704;28;20059;-82
2022/07/05 10:35:34;;;;;;;5.20;1.10;;;20.70;99.90;;;;;;4969657;28;20486;-81
2022/07/05 10:38:03;;;;;;;2.85;0.98;;;20.60;99.90;;;;;;5023319;28;20052;-82
2022/07/05 10:40:33;;;;;;;2.50;0.90;;;20.30;99.90;;;;;;4985791;28;20061;-81
2022/07/05 10:43:01;;;;;;;2.33;0.65;;;20.20;99.90;;;;;;5015546;28;20053;-82
2022/07/05 10:45:35;;;;;;;6.70;2.13;;;20.10;99.90;;;;;;5031433;28;20045;-83
2022/07/05 10:48:16;;;;;;;6.85;1.42;;;19.90;99.90;;;;;;4999237;28;20119;-83
2022/07/05 10:50:49;;;;;;;3.72;0.82;;;19.90;99.90;;;;;;5000339;28;20124;-83
2022/07/05 10:53:21;;;;;;;2.40;1.02;;;19.80;99.90;;;;;;5010070;28;20057;-81
2022/07/05 10:55:51;;;;;;;3.17;0.80;;;19.90;99.90;;;;;;5003953;28;20097;-82
2022/07/05 10:58:20;;;;;;;3.00;1.00;;;19.90;99.90;;;;;;5004321;28;20111;-81
2022/07/05 11:00:49;;;;;;;5.60;1.17;;;19.80;99.90;;;;;;5004095;28;20045;-82
2022/07/05 11:03:35;;;;;;;5.85;1.40;;;19.80;99.90;;;;;;5003886;28;20056;-82
2022/07/05 11:06:04;;;;;;;5.43;0.98;;;19.90;99.90;;;;;;4984571;28;20045;-82
2022/07/05 11:08:57;;;;;;;6.10;1.00;;;19.90;99.90;;;;;;5031351;28;20069;-82
2022/07/05 11:11:28;;;;;;;5.97;1.17;;;20.30;99.90;;;;;;5017281;28;20049;-82
2022/07/05 11:13:55;;;;;;;4.75;1.00;;;20.50;99.90;;;;;;4994417;28;20045;-82
2022/07/05 11:16:36;;;;;;;3.95;1.02;;;21.00;99.90;;;;;;5016512;28;20053;-82
2022/07/05 11:19:18;;;;;;;2.88;1.15;;;21.30;99.90;;;;;;4969008;28;20060;-81
2022/07/05 11:22:01;;;;;;;2.25;0.93;;;21.80;99.90;;;;;;4996762;28;20362;-82
2022/07/05 11:24:31;;;;;;;4.68;1.70;;;22.40;99.90;;;;;;5015478;28;20120;-83
2022/07/05 11:26:59;;;;;;;3.80;1.10;;;22.20;99.90;;;;;;4997909;28;20501;-82
2022/07/05 11:29:42;;;;;;;3.88;1.10;;;22.30;99.90;;;;;;4977998;28;20501;-82
2022/07/05 11:32:10;;;;;;;2.90;1.15;;;23.00;99.90;;;;;;5015524;28;20081;-82
2022/07/05 11:34:37;;;;;;;5.53;1.35;;;23.30;99.90;;;;;;4969719;28;20053;-81
2022/07/05 11:37:32;;;;;;;4.18;1.02;;;23.80;99.90;;;;;;4994056;28;20545;-83
2022/07/05 11:40:07;;;;;;;5.15;1.20;;;23.60;99.90;;;;;;4973925;28;20046;-82
2022/07/05 11:42:42;;;;;;;3.25;1.23;;;23.40;99.90;;;;;;5011696;28;20607;-82
2022/07/05 11:45:12;;;;;;;3.72;1.15;;;22.90;99.80;;;;;;4981423;28;20229;-82
2022/07/05 11:47:39;;;;;;;3.67;0.97;;;22.80;99.20;;;;;;5014554;28;20405;-82
2022/07/05 11:50:06;;;;;;;5.03;1.20;;;22.40;99.90;;;;;;4980515;28;20304;-82
2022/07/05 11:52:34;;;;;;;4.25;1.10;;;22.50;99.90;;;;;;5017177;28;20073;-83
2022/07/05 11:55:11;;;;;;;4.90;2.83;;;22.60;99.90;;;;;;4998707;28;20042;-82
2022/07/05 11:57:48;;;;;;;2.65;1.10;;;23.20;99.10;;;;;;4988269;28;20354;-83
2022/07/05 12:00:25;;;;;;;5.22;1.40;;;23.60;99.90;;;;;;4979165;28;20115;-82
2022/07/05 12:02:51;;;;;;;11.88;9.05;;;24.10;99.10;;;;;;5017672;28;20409;-82
2022/07/05 12:05:18;;;;;;;3.13;1.23;;;24.10;94.20;;;;;;5006980;28;20043;-83
2022/07/05 12:07:50;;;;;;;5.47;1.63;;;24.50;93.90;;;;;;4996238;28;20559;-81
2022/07/05 12:13:08;;;;;;;6.13;3.10;;;24.80;77.30;;;;;;4956951;28;20048;-82
2022/07/05 12:15:35;;;;;;;3.97;1.10;;;24.80;80.00;;;;;;4984385;28;20062;-82
2022/07/05 12:18:04;;;;;;;5.95;3.83;;;25.00;73.70;;;;;;4971265;28;20046;-82
2022/07/05 12:20:33;;;;;;;4.10;1.13;;;25.10;72.40;;;;;;5013759;28;20053;-82
2022/07/05 12:23:00;;;;;;;4.88;1.75;;;25.20;69.40;;;;;;4969803;28;20445;-82
2022/07/05 12:25:28;;;;;;;1.90;0.80;;;25.30;66.60;;;;;;4969180;28;20053;-82
2022/07/05 12:27:56;;;;;;;2.15;0.80;;;25.60;66.30;;;;;;4984953;28;20095;-82
2022/07/05 12:30:24;;;;;;;13.30;10.80;;;25.10;58.90;;;;;;4988974;28;20642;-83
2022/07/05 12:32:53;;;;;;;5.03;3.15;;;25.20;58.80;;;;;;4984273;28;20038;-82
2022/07/05 12:35:47;;;;;;;12.63;11.38;;;25.40;59.70;;;;;;5035253;28;20497;-82
2022/07/05 12:38:18;;;;;;;3.15;1.20;;;25.60;60.00;;;;;;4980900;28;20046;-82
2022/07/05 12:40:56;;;;;;;4.80;3.58;;;25.70;58.90;;;;;;5005497;28;20046;-82
2022/07/05 12:43:22;;;;;;;5.00;1.10;;;25.80;56.10;;;;;;5002192;28;20105;-82
2022/07/05 12:46:15;;;;;;;2.58;0.63;;;24.80;55.50;;;;;;4970628;28;20033;-82
2022/07/05 12:48:41;;;;;;;1.30;0.60;;;24.90;54.20;;;;;;4967335;28;20042;-83
2022/07/05 12:51:09;;;;;;;5.63;3.47;;;25.40;56.70;;;;;;5025803;28;20049;-82
2022/07/05 12:59:17;;;;;;;5.25;1.33;;;25.80;55.30;;;;;;4990151;28;20046;-82
2022/07/05 13:01:44;;;;;;;4.47;1.85;;;25.70;59.90;;;;;;4959797;28;20136;-82
2022/07/05 13:04:19;;;;;;;3.17;1.20;;;25.50;59.90;;;;;;4983162;28;20043;-82
2022/07/05 13:06:50;;;;;;;1.73;0.75;;;24.50;61.20;;;;;;4985950;28;20089;-81
2022/07/05 13:09:38;;;;;;;2.75;0.52;;;24.70;63.00;;;;;;5018827;28;20911;-82